METAR Data
IDs: Format: Raw Decoded Include TAF

Data at: 2234 UTC 25 Apr 2019

KCOS 252154Z 14006KT 10SM SCT055 BKN090 BKN250 16/M01 A3021 RMK AO2 RAB08E21 SLP184 VCSH W P0000 T01561011